createdAt,value
2018-01-26T00:00:50.945Z,26.37
2018-01-26T00:03:18.603Z,28.87
2018-01-26T00:05:46.218Z,27.70
2018-01-26T00:08:13.822Z,27.77
2018-01-26T00:10:41.386Z,29.40
2018-01-26T00:13:09.345Z,27.17
2018-01-26T00:15:36.964Z,27.43
2018-01-26T00:18:04.717Z,26.23
2018-01-26T00:20:32.337Z,29.83
2018-01-26T00:22:59.969Z,31.03
2018-01-26T00:25:27.536Z,30.53
2018-01-26T00:27:55.132Z,34.80
2018-01-26T00:30:22.730Z,34.37
2018-01-26T00:32:50.280Z,35.83
2018-01-26T00:35:17.872Z,35.73
2018-01-26T00:37:45.503Z,33.87
2018-01-26T00:40:13.095Z,33.90
2018-01-26T00:42:40.670Z,33.50
2018-01-26T00:45:08.666Z,31.70
2018-01-26T00:47:36.371Z,34.80
2018-01-26T00:50:03.972Z,36.17
2018-01-26T00:52:31.549Z,35.00
2018-01-26T00:54:59.122Z,39.63
2018-01-26T00:57:26.711Z,37.60
2018-01-26T00:59:54.278Z,37.17
2018-01-26T01:02:21.825Z,36.30
2018-01-26T01:04:49.424Z,33.07
2018-01-26T01:07:19.780Z,38.47
2018-01-26T01:09:47.370Z,36.67
2018-01-26T01:12:14.958Z,35.37
2018-01-26T01:14:42.531Z,41.17
2018-01-26T01:17:12.041Z,37.53
2018-01-26T01:19:39.681Z,33.70
2018-01-26T01:22:07.252Z,36.57
2018-01-26T01:24:34.810Z,35.77
2018-01-26T01:27:02.653Z,36.20
2018-01-26T01:29:30.237Z,36.10
2018-01-26T01:31:57.903Z,35.33
2018-01-26T01:34:25.831Z,34.67
2018-01-26T01:36:53.390Z,36.33
2018-01-26T01:39:20.999Z,35.00
2018-01-26T01:41:48.632Z,35.57
2018-01-26T01:44:16.173Z,35.23
2018-01-26T01:46:43.744Z,37.27
2018-01-26T01:49:19.313Z,34.57
2018-01-26T01:51:47.071Z,34.50
2018-01-26T01:54:14.643Z,36.67
2018-01-26T01:56:42.292Z,32.37
2018-01-26T01:59:09.836Z,35.20
2018-01-26T02:01:37.435Z,35.00
2018-01-26T02:04:05.071Z,34.10
2018-01-26T02:06:32.713Z,36.33
2018-01-26T02:09:00.483Z,36.60
2018-01-26T02:11:28.352Z,35.00
2018-01-26T02:13:55.923Z,34.27
2018-01-26T02:16:23.703Z,36.10
2018-01-26T02:18:51.334Z,35.67
2018-01-26T02:21:18.939Z,34.87
2018-01-26T02:23:46.519Z,36.43
2018-01-26T02:26:14.185Z,35.13
2018-01-26T02:28:41.758Z,33.90
2018-01-26T02:31:09.349Z,36.73
2018-01-26T02:33:36.987Z,35.27
2018-01-26T02:36:04.809Z,37.97
2018-01-26T02:38:32.380Z,43.10
2018-01-26T02:41:00.013Z,38.13
2018-01-26T02:43:28.199Z,34.67
2018-01-26T02:45:55.760Z,41.33
2018-01-26T02:48:23.599Z,36.50
2018-01-26T02:50:51.930Z,36.20
2018-01-26T02:53:20.311Z,36.30
2018-01-26T02:55:48.504Z,36.67
2018-01-26T02:58:16.086Z,36.10
2018-01-26T03:00:43.692Z,38.77
2018-01-26T03:03:13.735Z,37.00
2018-01-26T03:05:41.393Z,38.00
2018-01-26T03:08:10.126Z,33.83
2018-01-26T03:10:37.732Z,34.97
2018-01-26T03:13:07.129Z,35.40
2018-01-26T03:15:34.756Z,33.60
2018-01-26T03:18:04.652Z,33.77
2018-01-26T03:20:32.232Z,35.30
2018-01-26T03:23:00.198Z,38.10
2018-01-26T03:25:28.141Z,36.00
2018-01-26T03:27:55.766Z,37.93
2018-01-26T03:30:23.388Z,39.03
2018-01-26T03:32:53.194Z,33.33
2018-01-26T03:35:20.958Z,37.20
2018-01-26T03:37:48.636Z,36.30
2018-01-26T03:40:18.439Z,36.90
2018-01-26T03:42:48.106Z,34.50
2018-01-26T03:45:16.051Z,35.73
2018-01-26T03:47:43.739Z,34.17
2018-01-26T03:50:11.329Z,34.33
2018-01-26T03:52:40.693Z,35.80
2018-01-26T03:55:08.411Z,33.63
2018-01-26T03:57:36.799Z,33.67
2018-01-26T04:00:06.092Z,35.47
2018-01-26T04:02:33.819Z,32.20
2018-01-26T04:05:01.469Z,35.13
2018-01-26T04:07:29.243Z,36.50
2018-01-26T04:09:56.828Z,36.60
2018-01-26T04:12:24.521Z,36.00
2018-01-26T04:14:52.107Z,34.10
2018-01-26T04:17:19.793Z,36.37
2018-01-26T04:19:47.545Z,35.27
2018-01-26T04:22:15.214Z,35.87
2018-01-26T04:24:42.844Z,35.60
2018-01-26T04:27:11.069Z,38.43
2018-01-26T04:29:38.713Z,36.33
2018-01-26T04:32:06.287Z,32.47
2018-01-26T04:34:33.840Z,37.00
2018-01-26T04:37:01.425Z,34.80
2018-01-26T04:39:29.032Z,35.20
2018-01-26T04:41:56.617Z,36.93
2018-01-26T04:44:24.173Z,38.33
2018-01-26T04:46:51.756Z,36.83
2018-01-26T04:49:19.359Z,36.10
2018-01-26T04:51:46.955Z,34.47
2018-01-26T04:54:14.701Z,36.83
2018-01-26T04:56:42.271Z,46.57
2018-01-26T04:59:09.946Z,35.93
2018-01-26T05:01:38.421Z,37.23
2018-01-26T05:04:06.368Z,32.33
2018-01-26T05:06:34.668Z,35.73
2018-01-26T05:09:02.432Z,35.20
2018-01-26T05:11:31.296Z,34.00
2018-01-26T05:13:59.268Z,38.30
2018-01-26T05:16:28.073Z,34.50
2018-01-26T05:18:56.125Z,33.23
2018-01-26T05:21:23.781Z,32.90
2018-01-26T05:23:51.682Z,34.80
2018-01-26T05:26:19.534Z,37.07
2018-01-26T05:28:47.440Z,37.73
2018-01-26T05:31:15.036Z,35.60
2018-01-26T05:33:42.645Z,35.30
2018-01-26T05:36:10.280Z,39.37
2018-01-26T05:38:37.879Z,35.53
2018-01-26T05:41:05.490Z,36.97
2018-01-26T05:43:33.140Z,38.00
2018-01-26T05:46:00.778Z,36.87
2018-01-26T05:48:28.327Z,35.90
2018-01-26T05:50:55.936Z,36.43
2018-01-26T05:53:23.500Z,35.27
2018-01-26T05:55:51.045Z,37.90
2018-01-26T05:58:19.548Z,35.50
2018-01-26T06:00:47.255Z,37.77
2018-01-26T06:03:14.858Z,51.40
2018-01-26T06:05:42.427Z,46.77
2018-01-26T06:08:10.233Z,33.07
2018-01-26T06:10:37.834Z,38.00
2018-01-26T06:13:05.637Z,38.07
2018-01-26T06:15:33.235Z,33.50
2018-01-26T06:18:00.859Z,35.80
2018-01-26T06:20:28.836Z,40.47
2018-01-26T06:22:56.417Z,38.57
2018-01-26T06:25:24.294Z,33.57
2018-01-26T06:27:51.910Z,36.30
2018-01-26T06:30:19.552Z,49.87
2018-01-26T06:32:47.156Z,37.60
2018-01-26T06:35:14.795Z,38.83
2018-01-26T06:37:42.343Z,38.67
2018-01-26T06:40:09.913Z,35.03
2018-01-26T06:42:37.503Z,36.87
2018-01-26T06:45:05.642Z,39.67
2018-01-26T06:47:33.517Z,41.07
2018-01-26T06:50:01.069Z,36.23
2018-01-26T06:52:28.643Z,35.60
2018-01-26T06:54:56.256Z,36.40
2018-01-26T06:57:23.805Z,35.10
2018-01-26T06:59:51.377Z,34.87
2018-01-26T07:02:20.347Z,39.37
2018-01-26T07:04:48.294Z,36.93
2018-01-26T07:07:15.850Z,35.70
2018-01-26T07:09:43.421Z,38.00
2018-01-26T07:12:10.978Z,38.90
2018-01-26T07:14:38.613Z,35.00
2018-01-26T07:17:06.323Z,32.40
2018-01-26T07:19:33.930Z,32.23
2018-01-26T07:22:01.517Z,33.30
2018-01-26T07:24:29.081Z,32.27
2018-01-26T07:26:56.642Z,34.07
2018-01-26T07:29:24.243Z,34.80
2018-01-26T07:31:51.841Z,35.67
2018-01-26T07:34:19.401Z,35.33
2018-01-26T07:36:46.955Z,33.20
2018-01-26T07:39:14.614Z,35.57
2018-01-26T07:41:44.025Z,37.67
2018-01-26T07:44:11.686Z,34.50
2018-01-26T07:46:39.320Z,33.40
2018-01-26T07:49:07.020Z,36.10
2018-01-26T07:51:34.862Z,36.90
2018-01-26T07:54:05.108Z,34.77
2018-01-26T07:56:32.899Z,34.63
2018-01-26T07:59:00.471Z,32.87
2018-01-26T08:01:28.052Z,35.33
2018-01-26T08:03:55.607Z,34.30
2018-01-26T08:06:23.608Z,32.70
2018-01-26T08:08:51.480Z,31.90
2018-01-26T08:11:19.085Z,31.37
2018-01-26T08:13:46.654Z,30.87
2018-01-26T08:16:14.256Z,31.97
2018-01-26T08:18:41.827Z,29.97
2018-01-26T08:21:09.801Z,33.23
2018-01-26T08:23:37.563Z,32.23
2018-01-26T08:26:05.120Z,30.70
2018-01-26T08:28:32.676Z,31.20
2018-01-26T08:31:00.261Z,34.73
2018-01-26T08:33:27.874Z,34.10
2018-01-26T08:35:55.550Z,37.00
2018-01-26T08:38:24.262Z,37.53
2018-01-26T08:40:51.797Z,36.50
2018-01-26T08:43:19.374Z,35.47
2018-01-26T08:45:47.011Z,35.57
2018-01-26T08:48:14.657Z,34.87
2018-01-26T08:50:42.255Z,30.80
2018-01-26T08:53:09.878Z,31.57
2018-01-26T08:55:37.892Z,32.47
2018-01-26T08:58:05.444Z,34.13
2018-01-26T09:00:33.043Z,40.07
2018-01-26T09:03:00.614Z,36.47
2018-01-26T09:05:28.212Z,34.87
2018-01-26T09:07:55.799Z,32.20
2018-01-26T09:10:23.372Z,47.00
2018-01-26T09:12:50.963Z,35.57
2018-01-26T09:15:18.772Z,36.50
2018-01-26T09:17:46.317Z,32.70
2018-01-26T09:20:13.974Z,31.10
2018-01-26T09:22:41.562Z,30.50
2018-01-26T09:25:09.467Z,32.83
2018-01-26T09:27:37.033Z,32.07
2018-01-26T09:30:04.676Z,33.27
2018-01-26T09:32:32.253Z,39.00
2018-01-26T09:34:59.838Z,47.57
2018-01-26T09:37:27.431Z,34.33
2018-01-26T09:39:54.985Z,33.77
2018-01-26T09:42:23.231Z,40.10
2018-01-26T09:44:50.815Z,36.90
2018-01-26T09:47:18.395Z,36.60
2018-01-26T09:49:45.958Z,32.07
2018-01-26T09:52:13.574Z,37.73
2018-01-26T09:54:41.120Z,29.67
2018-01-26T09:57:08.788Z,34.67
2018-01-26T09:59:36.345Z,38.17
2018-01-26T10:02:03.897Z,34.67
2018-01-26T10:04:31.474Z,31.83
2018-01-26T10:06:59.051Z,55.57
2018-01-26T10:09:26.591Z,30.87
2018-01-26T10:11:54.182Z,30.47
2018-01-26T10:14:21.796Z,27.97
2018-01-26T10:16:49.348Z,32.57
2018-01-26T10:19:16.914Z,27.43
2018-01-26T10:21:44.501Z,36.13
2018-01-26T10:24:12.037Z,31.63
2018-01-26T10:26:39.657Z,28.20
2018-01-26T10:29:07.393Z,30.13
2018-01-26T10:31:34.965Z,30.87
2018-01-26T10:34:02.686Z,31.10
2018-01-26T10:36:30.244Z,30.63
2018-01-26T10:38:57.834Z,30.03
2018-01-26T10:44:16.177Z,28.37
2018-01-26T10:46:43.717Z,28.07
2018-01-26T10:49:11.837Z,29.37
2018-01-26T10:51:39.453Z,30.17
2018-01-26T10:54:07.016Z,31.57
2018-01-26T10:56:34.564Z,32.77
2018-01-26T10:59:02.141Z,27.40
2018-01-26T11:01:29.712Z,25.90
2018-01-26T11:03:57.698Z,29.37
2018-01-26T11:06:26.195Z,29.33
2018-01-26T11:08:57.535Z,29.27
2018-01-26T11:11:25.145Z,26.93
2018-01-26T11:13:52.864Z,28.43
2018-01-26T11:16:20.501Z,29.53
2018-01-26T11:18:48.061Z,29.00
2018-01-26T11:21:16.420Z,31.27
2018-01-26T11:23:44.014Z,29.63
2018-01-26T11:26:11.595Z,31.20
2018-01-26T11:28:39.220Z,33.83
2018-01-26T11:31:06.906Z,33.70
2018-01-26T11:33:34.473Z,32.30
2018-01-26T11:36:03.921Z,32.83
2018-01-26T11:38:31.502Z,31.40
2018-01-26T11:40:59.057Z,31.23
2018-01-26T11:43:26.711Z,32.27
2018-01-26T11:45:54.572Z,32.70
2018-01-26T11:48:22.130Z,29.90
2018-01-26T11:50:49.697Z,37.33
2018-01-26T11:53:17.292Z,31.30
2018-01-26T11:55:44.856Z,30.10
2018-01-26T11:58:12.434Z,42.07
2018-01-26T12:00:40.947Z,27.57
2018-01-26T12:03:09.630Z,29.20
2018-01-26T12:05:37.202Z,29.07
2018-01-26T12:08:04.796Z,30.63
2018-01-26T12:10:32.377Z,30.80
2018-01-26T12:12:59.964Z,29.67
2018-01-26T12:15:27.809Z,30.80
2018-01-26T12:17:55.372Z,31.00
2018-01-26T12:20:22.946Z,30.53
2018-01-26T12:22:50.588Z,30.00
2018-01-26T12:25:18.180Z,30.70
2018-01-26T12:27:45.779Z,30.87
2018-01-26T12:30:13.440Z,32.17
2018-01-26T12:32:41.043Z,31.37
2018-01-26T12:35:08.712Z,30.20
2018-01-26T12:37:36.985Z,30.77
2018-01-26T12:40:04.583Z,27.50
2018-01-26T12:42:32.116Z,27.57
2018-01-26T12:44:59.698Z,29.87
2018-01-26T12:47:27.498Z,29.40
2018-01-26T12:49:55.091Z,30.23
2018-01-26T12:52:23.493Z,31.10
2018-01-26T12:54:51.048Z,45.17
2018-01-26T12:57:18.698Z,30.63
2018-01-26T12:59:46.262Z,30.87
2018-01-26T13:02:14.020Z,35.27
2018-01-26T13:04:41.620Z,30.37
2018-01-26T13:07:09.901Z,34.40
2018-01-26T13:09:37.469Z,35.80
2018-01-26T13:12:05.298Z,29.10
2018-01-26T13:14:32.855Z,33.53
2018-01-26T13:17:00.431Z,35.10
2018-01-26T13:19:28.042Z,37.47
2018-01-26T13:21:55.642Z,54.30
2018-01-26T13:24:23.260Z,34.77
2018-01-26T13:26:50.860Z,35.60
2018-01-26T13:29:19.212Z,41.63
2018-01-26T13:31:46.893Z,47.30
2018-01-26T13:34:15.085Z,35.30
2018-01-26T13:36:42.662Z,36.10
2018-01-26T13:39:10.965Z,37.33
2018-01-26T13:41:38.590Z,34.00
2018-01-26T13:44:06.136Z,33.53
2018-01-26T13:46:33.778Z,34.60
2018-01-26T13:49:01.547Z,35.57
2018-01-26T13:51:29.117Z,36.43
2018-01-26T13:53:56.780Z,31.03
2018-01-26T13:56:25.144Z,51.23
2018-01-26T13:58:52.715Z,35.80
2018-01-26T14:01:20.441Z,40.67
2018-01-26T14:03:48.079Z,33.47
2018-01-26T14:06:15.637Z,31.93
2018-01-26T14:08:43.223Z,29.67
2018-01-26T14:11:11.197Z,30.90
2018-01-26T14:13:38.765Z,29.20
2018-01-26T14:16:06.318Z,30.87
2018-01-26T14:18:34.019Z,29.23
2018-01-26T14:21:01.469Z,27.03
2018-01-26T14:23:29.017Z,26.80
2018-01-26T14:25:56.612Z,29.73
2018-01-26T14:28:24.325Z,31.37
2018-01-26T14:30:51.854Z,29.90
2018-01-26T14:33:19.407Z,30.53
2018-01-26T14:35:46.945Z,26.67
2018-01-26T14:38:14.524Z,26.33
2018-01-26T14:40:42.108Z,25.97
2018-01-26T14:43:09.819Z,50.57
2018-01-26T14:45:37.373Z,42.63
2018-01-26T14:48:04.959Z,35.73
2018-01-26T14:50:32.548Z,34.47
2018-01-26T14:53:00.104Z,26.57
2018-01-26T14:55:28.271Z,29.00
2018-01-26T14:57:55.832Z,32.50
2018-01-26T15:00:23.385Z,31.87
2018-01-26T15:02:50.923Z,25.27
2018-01-26T15:05:18.930Z,26.50
2018-01-26T15:07:46.510Z,27.37
2018-01-26T15:10:14.084Z,29.40
2018-01-26T15:12:41.663Z,26.30
2018-01-26T15:15:09.567Z,29.90
2018-01-26T15:17:37.726Z,28.67
2018-01-26T15:20:05.270Z,29.83
2018-01-26T15:22:32.871Z,29.40
2018-01-26T15:25:00.463Z,28.97
2018-01-26T15:27:28.276Z,29.87
2018-01-26T15:29:56.188Z,30.97
2018-01-26T15:32:23.767Z,30.47
2018-01-26T15:34:53.155Z,31.23
2018-01-26T15:37:23.302Z,32.23
2018-01-26T15:39:50.916Z,30.60
2018-01-26T15:42:18.454Z,33.17
2018-01-26T15:44:46.040Z,30.87
2018-01-26T15:47:13.793Z,40.10
2018-01-26T15:49:42.144Z,29.17
2018-01-26T15:52:09.728Z,31.73
2018-01-26T15:54:37.304Z,32.50
2018-01-26T15:57:04.922Z,35.27
2018-01-26T15:59:32.472Z,31.93
2018-01-26T16:02:00.071Z,30.60
2018-01-26T16:04:27.672Z,31.07
2018-01-26T16:06:55.222Z,32.23
2018-01-26T16:09:22.811Z,37.93
2018-01-26T16:11:50.365Z,36.23
2018-01-26T16:14:17.911Z,41.23
2018-01-26T16:16:45.638Z,37.03
2018-01-26T16:19:13.214Z,35.80
2018-01-26T16:21:40.759Z,33.47
2018-01-26T16:24:08.588Z,38.20
2018-01-26T16:26:36.140Z,48.97
2018-01-26T16:29:03.726Z,49.93
2018-01-26T16:31:31.436Z,36.67
2018-01-26T16:33:59.017Z,35.17
2018-01-26T16:36:26.564Z,35.93
2018-01-26T16:38:54.125Z,36.20
2018-01-26T16:41:22.092Z,36.60
2018-01-26T16:43:49.651Z,37.87
2018-01-26T16:46:17.261Z,38.07
2018-01-26T16:48:44.804Z,38.20
2018-01-26T16:51:12.613Z,38.40
2018-01-26T16:53:40.220Z,35.90
2018-01-26T16:56:07.779Z,35.50
2018-01-26T16:58:35.344Z,38.77
2018-01-26T17:01:02.938Z,36.27
2018-01-26T17:03:30.598Z,39.77
2018-01-26T17:05:58.132Z,36.50
2018-01-26T17:08:25.695Z,36.13
2018-01-26T17:10:53.247Z,37.87
2018-01-26T17:13:20.916Z,42.40
2018-01-26T17:15:48.493Z,46.43
2018-01-26T17:18:16.055Z,41.17
2018-01-26T17:20:43.607Z,38.93
2018-01-26T17:23:11.582Z,35.17
2018-01-26T17:25:39.336Z,36.00
2018-01-26T17:28:07.037Z,34.00
2018-01-26T17:30:34.671Z,37.67
2018-01-26T17:33:02.233Z,38.63
2018-01-26T17:35:30.020Z,34.93
2018-01-26T17:37:57.664Z,32.17
2018-01-26T17:40:25.242Z,31.83
2018-01-26T17:42:52.799Z,33.60
2018-01-26T17:45:20.414Z,31.13
2018-01-26T17:47:48.019Z,31.90
2018-01-26T17:50:15.568Z,37.30
2018-01-26T17:52:43.167Z,37.63
2018-01-26T17:55:10.816Z,37.53
2018-01-26T17:57:38.954Z,39.20
2018-01-26T18:00:06.725Z,37.00
2018-01-26T18:02:34.542Z,36.00
2018-01-26T18:05:02.112Z,36.50
2018-01-26T18:07:29.866Z,35.17
2018-01-26T18:09:57.476Z,31.33
2018-01-26T18:12:26.603Z,34.13
2018-01-26T18:14:54.575Z,31.60
2018-01-26T18:17:22.382Z,28.97
2018-01-26T18:19:50.058Z,28.83
2018-01-26T18:22:17.620Z,28.40
2018-01-26T18:24:45.926Z,33.83
2018-01-26T18:27:13.493Z,28.83
2018-01-26T18:29:41.201Z,29.23
2018-01-26T18:32:08.768Z,32.20
2018-01-26T18:34:36.356Z,31.23
2018-01-26T18:37:03.956Z,29.73
2018-01-26T18:39:32.098Z,34.27
2018-01-26T18:41:59.701Z,34.27
2018-01-26T18:44:27.340Z,32.60
2018-01-26T18:46:54.938Z,30.03
2018-01-26T18:49:22.735Z,30.77
2018-01-26T18:51:50.412Z,29.37
2018-01-26T18:54:18.165Z,27.57
2018-01-26T18:56:45.812Z,39.97
2018-01-26T18:59:13.529Z,36.97
2018-01-26T19:01:42.020Z,45.53
2018-01-26T19:04:09.603Z,33.23
2018-01-26T19:06:37.179Z,35.73
2018-01-26T19:09:05.136Z,33.50
2018-01-26T19:11:32.903Z,32.17
2018-01-26T19:14:01.195Z,33.03
2018-01-26T19:16:29.071Z,32.70
2018-01-26T19:18:57.122Z,30.73
2018-01-26T19:21:24.998Z,32.07
2018-01-26T19:23:52.936Z,32.40
2018-01-26T19:26:20.545Z,30.67
2018-01-26T19:28:48.132Z,29.00
2018-01-26T19:31:15.691Z,29.03
2018-01-26T19:33:43.986Z,30.00
2018-01-26T19:36:11.612Z,29.03
2018-01-26T19:38:39.185Z,27.10
2018-01-26T19:41:06.796Z,24.90
2018-01-26T19:43:34.390Z,26.07
2018-01-26T19:46:01.969Z,24.60
2018-01-26T19:48:29.553Z,34.27
2018-01-26T19:50:57.111Z,27.23
2018-01-26T19:53:24.685Z,30.40
2018-01-26T19:55:52.234Z,25.97
2018-01-26T19:58:19.824Z,27.50
2018-01-26T20:00:47.390Z,27.43
2018-01-26T20:03:26.574Z,31.73
2018-01-26T20:05:59.808Z,39.47
2018-01-26T20:08:33.065Z,32.80
2018-01-26T20:11:00.920Z,30.03
2018-01-26T20:13:28.774Z,26.97
2018-01-26T20:16:00.879Z,25.97
2018-01-26T20:18:28.455Z,25.83
2018-01-26T20:20:55.981Z,24.03
2018-01-26T20:23:23.721Z,27.87
2018-01-26T20:25:51.313Z,26.00
2018-01-26T20:28:18.901Z,24.80
2018-01-26T20:30:46.489Z,25.20
2018-01-26T20:33:14.358Z,25.70
2018-01-26T20:35:41.978Z,30.27
2018-01-26T20:38:10.458Z,29.97
2018-01-26T20:40:38.026Z,25.97
2018-01-26T20:43:05.686Z,26.20
2018-01-26T20:45:33.645Z,29.63
2018-01-26T20:48:01.242Z,30.10
2018-01-26T20:50:29.624Z,57.20
2018-01-26T20:52:57.254Z,38.70
2018-01-26T20:55:24.961Z,36.93
2018-01-26T20:57:52.545Z,36.33
2018-01-26T21:00:20.253Z,35.83
2018-01-26T21:02:47.886Z,35.20
2018-01-26T21:05:15.790Z,33.37
2018-01-26T21:07:43.348Z,30.67
2018-01-26T21:10:10.966Z,31.13
2018-01-26T21:12:38.577Z,29.40
2018-01-26T21:15:06.557Z,30.00
2018-01-26T21:17:34.185Z,27.17
2018-01-26T21:20:01.795Z,30.07
2018-01-26T21:22:29.840Z,29.70
2018-01-26T21:24:57.447Z,29.77
2018-01-26T21:27:25.099Z,29.50
2018-01-26T21:29:52.691Z,27.03
2018-01-26T21:32:20.966Z,24.77
2018-01-26T21:34:48.652Z,28.00
2018-01-26T21:37:16.248Z,25.13
2018-01-26T21:39:43.819Z,27.43
2018-01-26T21:42:11.522Z,26.50
2018-01-26T21:44:39.087Z,25.13
2018-01-26T21:47:07.217Z,30.30
2018-01-26T21:49:35.565Z,28.07
2018-01-26T21:52:03.137Z,28.30
2018-01-26T21:54:30.737Z,27.40
2018-01-26T21:56:58.479Z,28.00
2018-01-26T21:59:26.045Z,26.63
2018-01-26T22:01:53.622Z,23.00
2018-01-26T22:04:21.285Z,26.77
2018-01-26T22:06:54.427Z,26.40
2018-01-26T22:09:22.027Z,26.20
2018-01-26T22:11:49.617Z,26.27
2018-01-26T22:14:17.183Z,26.90
2018-01-26T22:16:44.780Z,28.57
2018-01-26T22:19:12.677Z,22.63
2018-01-26T22:21:40.229Z,25.97
2018-01-26T22:24:07.960Z,23.47
2018-01-26T22:26:35.542Z,21.87
2018-01-26T22:29:03.126Z,22.23
2018-01-26T22:31:30.722Z,22.40
2018-01-26T22:33:58.338Z,20.23
2018-01-26T22:36:25.901Z,18.47
2018-01-26T22:38:53.522Z,17.40
2018-01-26T22:41:22.219Z,16.77
2018-01-26T22:43:49.987Z,17.73
2018-01-26T22:46:17.599Z,17.10
2018-01-26T22:48:45.189Z,18.93
2018-01-26T22:51:12.760Z,18.37
2018-01-26T22:53:40.350Z,19.30
2018-01-26T22:56:08.020Z,19.40
2018-01-26T22:58:35.619Z,19.33
2018-01-26T23:01:03.225Z,20.10
2018-01-26T23:03:30.825Z,17.30
2018-01-26T23:05:58.410Z,18.57
2018-01-26T23:08:29.568Z,20.07
2018-01-26T23:14:39.004Z,17.70
2018-01-26T23:17:07.626Z,21.73
2018-01-26T23:19:35.445Z,20.23
2018-01-26T23:22:03.096Z,19.70
2018-01-26T23:24:31.969Z,20.40
2018-01-26T23:26:59.526Z,21.03
2018-01-26T23:29:27.086Z,22.23
2018-01-26T23:31:57.708Z,22.07
2018-01-26T23:34:25.294Z,20.37
2018-01-26T23:36:52.896Z,20.00
2018-01-26T23:39:20.609Z,33.17
2018-01-26T23:41:48.213Z,24.10
2018-01-26T23:44:17.743Z,23.20
2018-01-26T23:46:45.474Z,20.63
2018-01-26T23:49:14.033Z,19.70
2018-01-26T23:51:41.695Z,20.47
2018-01-26T23:54:12.353Z,20.70
2018-01-26T23:56:42.646Z,21.53
2018-01-26T23:59:10.250Z,18.63
